Anchorage, AK (99519)

7:41 PM AKDT on September 04, 2015 (GMT -0800)
Earthquake Park | | Change Station
CLOSE
Current Station
Personal Weather Station
Location: Anchorage, AK
Elevation: 62 ft
Nearby Weather Stations

Elev 62 ft 61.20 °N, 149.96 °W | Updated 1 minute ago

Overcast
Overcast
54.5 °F
Feels Like 54.5 °F
N
0.0
Wind Variable Wind from North

Today
High -- | Low -- °F
--% Chance of Precip.
Yesterday
High -- | Low -- °F
Precip. -- in
6:59 AM 8:57 PM
Waning Gibbous, 53% visible
Pressure 29.83 in
Visibility 10.0 miles
Clouds Overcast 4500 ft
Dew Point 48 °F
Humidity 80%
Rainfall 0.05 in
Snow Depth Not available.
UV 0 out of 12
Pollen Not available.
Air Quality Not available.
Flu Activity Not available.
METAR PALH 050253Z 05003KT 10SM OVC045 13/08 A2983 RMK AO2 SLP101 60000 T01280083 53001
Pressure 29.83 in
Visibility 10.0 miles
Clouds Overcast 4500 ft
Dew Point 48 °F
Humidity 80%
Rainfall 0.05 in
Snow Depth Not available.
UV 0 out of 12
Pollen Not available.
Air Quality Not available.
Flu Activity Not available.
METAR PALH 050253Z 05003KT 10SM OVC045 13/08 A2983 RMK AO2 SLP101 60000 T01280083 53001

10-Day Weather Forecast

×

Almanac

Astronomy

Sep. 04, 2015 Rise Set
Actual Time
Civil Twilight
Nautical Twilight
Astronomical Twilight
Moon
Length of Visible Light
Length of Day
Tomorrow will be .
, % of the Moon is Illuminated

Today's Extremes

State Highs State Lows

Community

WunderPhotos

Upload Photos

1,852,408 photos uploaded!

WunderBlogs® & News

Nearby

Air Quality

  Air Quality AQ Index Pollutant
Not available.

Snow Depth

Station Depth Elevation

Earthquake Activity

City Distance Mag. Time & Date
Minimum magnitude displayed is 2.5.

Coastal Water Temperatures

Place Temperature

Stations

Nearby Weather Stations

Station Location Temp. Windchill Dew Point Humidity Wind Precip. Elev Updated Type